createdAt,value
2022-12-27T00:00:27.408Z,5.53
2022-12-27T00:03:15.414Z,5.49
2022-12-27T00:06:07.985Z,5.55
2022-12-27T00:08:57.611Z,5.67
2022-12-27T00:11:45.616Z,5.63
2022-12-27T00:14:34.909Z,5.80
2022-12-27T00:17:22.850Z,5.85
2022-12-27T00:20:12.047Z,5.89
2022-12-27T00:23:01.296Z,5.80
2022-12-27T00:25:49.202Z,5.88
2022-12-27T00:28:37.271Z,6.00
2022-12-27T00:31:29.260Z,6.00
2022-12-27T00:34:17.233Z,6.01
2022-12-27T00:37:05.161Z,6.00
2022-12-27T00:39:53.133Z,6.10
2022-12-27T00:42:41.143Z,6.12
2022-12-27T00:45:29.205Z,6.12
2022-12-27T00:48:18.508Z,5.97
2022-12-27T00:51:08.753Z,5.75
2022-12-27T00:53:57.081Z,5.51
2022-12-27T00:56:44.994Z,5.30
2022-12-27T00:59:33.108Z,5.12
2022-12-27T01:02:21.054Z,5.01
2022-12-27T01:05:10.633Z,4.99
2022-12-27T01:07:58.610Z,5.03
2022-12-27T01:10:46.580Z,5.20
2022-12-27T01:13:35.544Z,5.16
2022-12-27T01:16:25.673Z,5.12
2022-12-27T01:19:14.837Z,5.30
2022-12-27T01:22:04.225Z,5.29
2022-12-27T01:24:52.498Z,5.18
2022-12-27T01:27:40.431Z,5.24
2022-12-27T01:30:28.366Z,5.27
2022-12-27T01:33:16.346Z,5.30
2022-12-27T01:36:12.609Z,5.24
2022-12-27T01:39:02.659Z,5.25
2022-12-27T01:42:08.312Z,5.35
2022-12-27T01:44:57.951Z,5.42
2022-12-27T01:47:55.782Z,5.46
2022-12-27T01:50:48.339Z,5.49
2022-12-27T01:53:40.463Z,5.60
2022-12-27T01:56:32.745Z,5.73
2022-12-27T01:59:20.849Z,5.67
2022-12-27T02:02:09.684Z,5.55
2022-12-27T02:04:57.854Z,5.50
2022-12-27T02:08:05.872Z,5.53
2022-12-27T02:10:54.751Z,5.39
2022-12-27T02:13:46.554Z,5.43
2022-12-27T02:16:34.600Z,5.45
2022-12-27T02:19:30.890Z,5.45
2022-12-27T02:23:11.233Z,5.54
2022-12-27T02:26:16.238Z,5.61
2022-12-27T02:29:20.060Z,5.69
2022-12-27T02:32:12.891Z,5.66
2022-12-27T02:35:09.931Z,5.70
2022-12-27T02:38:00.970Z,5.81
2022-12-27T02:41:08.981Z,5.69
2022-12-27T02:44:15.919Z,5.66
2022-12-27T02:47:23.841Z,5.58
2022-12-27T02:50:33.018Z,5.50
2022-12-27T02:53:35.211Z,5.53
2022-12-27T02:56:50.752Z,5.34
2022-12-27T03:00:20.649Z,5.27
2022-12-27T03:03:41.049Z,5.22
2022-12-27T03:06:48.097Z,5.35
2022-12-27T03:10:02.068Z,5.31
2022-12-27T03:13:18.005Z,5.15
2022-12-27T03:16:23.243Z,5.24
2022-12-27T03:19:38.413Z,5.16
2022-12-27T03:22:46.789Z,5.12
2022-12-27T03:25:37.141Z,5.22
2022-12-27T03:28:47.301Z,5.09
2022-12-27T03:31:57.081Z,5.21
2022-12-27T03:34:52.008Z,5.18
2022-12-27T03:38:01.941Z,5.20
2022-12-27T03:41:11.459Z,5.24
2022-12-27T03:43:59.533Z,5.14
2022-12-27T03:46:49.136Z,5.07
2022-12-27T03:49:44.391Z,4.91
2022-12-27T03:52:39.008Z,4.98
2022-12-27T03:55:33.019Z,5.14
2022-12-27T03:58:22.120Z,4.98
2022-12-27T04:01:10.251Z,5.12
2022-12-27T04:03:58.419Z,5.07
2022-12-27T04:06:46.779Z,5.06
2022-12-27T04:09:53.696Z,5.13
2022-12-27T04:12:58.983Z,5.23
2022-12-27T04:16:04.367Z,5.23
2022-12-27T04:19:10.172Z,5.23
2022-12-27T04:22:15.677Z,5.21
2022-12-27T04:25:23.034Z,5.32
2022-12-27T04:28:28.506Z,5.23
2022-12-27T04:31:34.183Z,5.16
2022-12-27T04:34:39.884Z,5.10
2022-12-27T04:37:27.854Z,5.14
2022-12-27T04:40:31.192Z,5.00
2022-12-27T04:43:36.698Z,5.04
2022-12-27T04:46:44.538Z,4.95
2022-12-27T04:49:50.737Z,4.92
2022-12-27T04:52:56.143Z,4.95
2022-12-27T04:55:45.461Z,5.07
2022-12-27T04:58:33.945Z,5.12
2022-12-27T05:01:39.639Z,5.07
2022-12-27T05:04:27.891Z,5.12
2022-12-27T05:07:34.127Z,5.02
2022-12-27T05:10:40.267Z,5.02
2022-12-27T05:13:47.344Z,5.00
2022-12-27T05:16:37.517Z,4.90
2022-12-27T05:19:25.393Z,4.91
2022-12-27T05:22:30.623Z,4.87
2022-12-27T05:25:38.040Z,4.93
2022-12-27T05:28:26.045Z,4.98
2022-12-27T05:31:15.591Z,4.98
2022-12-27T05:34:03.616Z,4.98
2022-12-27T05:36:51.522Z,4.80
2022-12-27T05:39:39.522Z,4.79
2022-12-27T05:42:27.565Z,4.72
2022-12-27T05:45:15.570Z,4.67
2022-12-27T05:48:05.470Z,4.60
2022-12-27T05:50:53.373Z,4.69
2022-12-27T05:53:41.882Z,4.57
2022-12-27T05:56:29.845Z,4.59
2022-12-27T05:59:17.880Z,4.66
2022-12-27T06:02:05.991Z,4.59
2022-12-27T06:04:55.448Z,4.62
2022-12-27T06:07:43.425Z,4.55
2022-12-27T06:10:31.353Z,4.50
2022-12-27T06:13:19.264Z,4.43
2022-12-27T06:16:09.411Z,4.34
2022-12-27T06:18:57.442Z,4.36
2022-12-27T06:21:46.785Z,4.41
2022-12-27T06:24:34.711Z,4.49
2022-12-27T06:27:22.691Z,4.36
2022-12-27T06:30:12.247Z,4.43
2022-12-27T06:33:00.254Z,4.48
2022-12-27T06:35:48.256Z,4.37
2022-12-27T06:38:38.203Z,4.38
2022-12-27T06:41:26.853Z,4.26
2022-12-27T06:44:15.091Z,4.20
2022-12-27T06:47:03.597Z,4.30
2022-12-27T06:49:51.529Z,4.14
2022-12-27T06:52:39.494Z,4.10
2022-12-27T06:55:28.729Z,4.07
2022-12-27T06:58:17.429Z,4.09
2022-12-27T07:01:08.656Z,3.95
2022-12-27T07:03:58.272Z,3.91
2022-12-27T07:06:46.282Z,3.93
2022-12-27T07:09:34.249Z,3.72
2022-12-27T07:12:23.574Z,3.82
2022-12-27T07:15:11.783Z,3.88
2022-12-27T07:18:00.760Z,3.95
2022-12-27T07:20:48.701Z,3.99
2022-12-27T07:23:37.262Z,4.04
2022-12-27T07:26:28.459Z,4.11
2022-12-27T07:29:17.998Z,4.00
2022-12-27T07:32:06.491Z,3.82
2022-12-27T07:34:54.503Z,3.66
2022-12-27T07:37:42.515Z,3.69
2022-12-27T07:40:30.467Z,3.79
2022-12-27T07:43:18.422Z,3.90
2022-12-27T07:46:10.238Z,3.91
2022-12-27T07:48:59.018Z,3.93
2022-12-27T07:51:47.048Z,3.87
2022-12-27T07:54:35.205Z,3.85
2022-12-27T07:57:23.161Z,3.76
2022-12-27T08:00:12.538Z,3.72
2022-12-27T08:03:01.854Z,3.67
2022-12-27T08:05:52.982Z,3.67
2022-12-27T08:08:44.817Z,3.61
2022-12-27T08:11:32.800Z,3.55
2022-12-27T08:14:20.759Z,3.56
2022-12-27T08:17:16.153Z,3.52
2022-12-27T08:20:06.497Z,3.48
2022-12-27T08:22:54.483Z,3.56
2022-12-27T08:25:48.472Z,3.59
2022-12-27T08:28:37.422Z,3.61
2022-12-27T08:31:25.452Z,3.65
2022-12-27T08:34:13.427Z,3.71
2022-12-27T08:37:02.708Z,3.73
2022-12-27T08:39:50.690Z,3.76
2022-12-27T08:42:38.697Z,3.95
2022-12-27T08:45:26.852Z,4.05
2022-12-27T08:48:15.027Z,4.05
2022-12-27T08:51:11.911Z,4.00
2022-12-27T08:54:05.190Z,4.02
2022-12-27T08:56:53.110Z,3.97
2022-12-27T08:59:41.057Z,3.94
2022-12-27T09:02:29.197Z,3.95
2022-12-27T09:05:17.526Z,3.98
2022-12-27T09:08:05.840Z,4.03
2022-12-27T09:10:55.142Z,4.14
2022-12-27T09:13:43.740Z,4.22
2022-12-27T09:16:34.067Z,4.28
2022-12-27T09:19:22.121Z,4.33
2022-12-27T09:22:10.076Z,4.47
2022-12-27T09:24:58.182Z,4.55
2022-12-27T09:27:47.490Z,4.63
2022-12-27T09:30:35.493Z,4.82
2022-12-27T09:33:23.473Z,4.87
2022-12-27T09:36:12.995Z,4.87
2022-12-27T09:39:01.312Z,4.81
2022-12-27T09:45:15.480Z,4.86
2022-12-27T09:48:07.314Z,4.97
2022-12-27T09:50:59.007Z,4.88
2022-12-27T09:53:54.400Z,4.86
2022-12-27T09:57:17.700Z,4.85
2022-12-27T09:59:54.406Z,4.85
2022-12-27T10:02:45.370Z,4.85
2022-12-27T10:05:37.544Z,4.95
2022-12-27T10:08:38.233Z,4.92
2022-12-27T10:11:48.193Z,4.95
2022-12-27T10:14:53.926Z,5.01
2022-12-27T10:17:56.086Z,4.90
2022-12-27T10:20:54.617Z,5.03
2022-12-27T10:23:50.422Z,5.04
2022-12-27T10:26:39.594Z,5.10
2022-12-27T10:29:28.284Z,5.23
2022-12-27T10:32:17.347Z,5.36
2022-12-27T10:35:07.538Z,5.39
2022-12-27T10:37:56.564Z,5.33
2022-12-27T10:40:53.582Z,5.34
2022-12-27T10:43:43.514Z,5.40
2022-12-27T10:46:33.899Z,5.42
2022-12-27T10:49:25.992Z,5.53
2022-12-27T10:52:20.921Z,5.53
2022-12-27T10:55:33.531Z,5.59
2022-12-27T10:58:36.866Z,5.64
2022-12-27T11:01:27.139Z,5.68
2022-12-27T11:04:21.143Z,5.61
2022-12-27T11:07:15.051Z,5.67
2022-12-27T11:10:15.632Z,5.73
2022-12-27T11:13:05.474Z,5.82
2022-12-27T11:15:58.948Z,5.90
2022-12-27T11:18:50.898Z,5.92
2022-12-27T11:21:40.855Z,5.82
2022-12-27T11:24:29.154Z,5.95
2022-12-27T11:27:25.159Z,6.03
2022-12-27T11:30:23.791Z,6.09
2022-12-27T11:33:24.588Z,6.22
2022-12-27T11:36:15.174Z,6.30
2022-12-27T11:39:03.380Z,6.38
2022-12-27T11:41:55.841Z,6.60
2022-12-27T11:44:48.632Z,6.74
2022-12-27T11:47:42.546Z,6.69
2022-12-27T11:50:43.965Z,6.66
2022-12-27T11:54:02.673Z,6.67
2022-12-27T11:56:56.245Z,6.74
2022-12-27T11:59:55.467Z,6.79
2022-12-27T12:03:00.519Z,6.89
2022-12-27T12:06:06.816Z,6.97
2022-12-27T12:09:19.410Z,7.15
2022-12-27T12:12:32.971Z,7.19
2022-12-27T12:15:49.899Z,7.41
2022-12-27T12:18:52.677Z,7.31
2022-12-27T12:21:48.995Z,7.23
2022-12-27T12:25:08.043Z,7.14
2022-12-27T12:28:47.207Z,6.93
2022-12-27T12:31:55.237Z,6.96
2022-12-27T12:34:56.970Z,6.90
2022-12-27T12:38:02.628Z,6.78
2022-12-27T12:41:17.715Z,6.86
2022-12-27T12:44:41.128Z,6.89
2022-12-27T12:48:11.917Z,6.84
2022-12-27T12:51:21.459Z,6.87
2022-12-27T12:54:23.194Z,6.87
2022-12-27T12:57:24.715Z,6.85
2022-12-27T13:00:27.706Z,6.84
2022-12-27T13:03:58.086Z,6.82
2022-12-27T13:07:04.446Z,6.79
2022-12-27T13:10:09.168Z,6.82
2022-12-27T13:13:04.261Z,6.80
2022-12-27T13:16:13.581Z,6.85
2022-12-27T13:19:15.931Z,6.84
2022-12-27T13:22:14.883Z,6.78
2022-12-27T13:25:16.433Z,6.76
2022-12-27T13:28:17.068Z,6.78
2022-12-27T13:31:13.451Z,6.73
2022-12-27T13:34:14.642Z,6.72
2022-12-27T13:37:15.191Z,6.74
2022-12-27T13:40:29.402Z,6.70
2022-12-27T13:43:53.939Z,6.69
2022-12-27T13:47:10.235Z,6.68
2022-12-27T13:50:28.549Z,6.69
2022-12-27T13:53:55.064Z,6.63
2022-12-27T13:56:54.885Z,6.68
2022-12-27T14:00:03.579Z,6.71
2022-12-27T14:03:30.776Z,6.71
2022-12-27T14:06:38.093Z,6.70
2022-12-27T14:09:49.435Z,6.71
2022-12-27T14:12:57.053Z,6.72
2022-12-27T14:16:11.765Z,6.70
2022-12-27T14:19:14.802Z,6.74
2022-12-27T14:22:30.411Z,6.61
2022-12-27T14:26:01.595Z,6.63
2022-12-27T14:29:28.409Z,6.61
2022-12-27T14:32:54.827Z,6.55
2022-12-27T14:36:14.221Z,6.53
2022-12-27T14:39:50.057Z,6.54
2022-12-27T14:43:07.979Z,6.49
2022-12-27T14:46:32.138Z,6.37
2022-12-27T14:49:50.257Z,6.33
2022-12-27T14:53:02.747Z,6.29
2022-12-27T14:56:03.509Z,6.26
2022-12-27T14:59:04.023Z,6.12
2022-12-27T15:02:03.686Z,6.08
2022-12-27T15:05:05.137Z,6.02
2022-12-27T15:08:24.600Z,5.93
2022-12-27T15:11:30.998Z,5.87
2022-12-27T15:14:36.850Z,5.89
2022-12-27T15:17:40.194Z,5.93
2022-12-27T15:20:53.453Z,6.03
2022-12-27T15:23:50.921Z,6.03
2022-12-27T15:26:50.733Z,6.06
2022-12-27T15:29:52.320Z,6.06
2022-12-27T15:32:53.377Z,6.08
2022-12-27T15:35:53.186Z,6.09
2022-12-27T15:38:53.525Z,6.05
2022-12-27T15:41:59.865Z,6.07
2022-12-27T15:44:59.765Z,6.08
2022-12-27T15:48:07.191Z,6.12
2022-12-27T15:51:01.791Z,6.12
2022-12-27T15:54:19.594Z,6.16
2022-12-27T15:57:24.435Z,6.18
2022-12-27T16:00:29.857Z,6.17
2022-12-27T16:03:35.310Z,6.21
2022-12-27T16:06:49.904Z,6.21
2022-12-27T16:09:38.746Z,6.24
2022-12-27T16:12:38.329Z,6.20
2022-12-27T16:15:52.142Z,6.16
2022-12-27T16:18:59.218Z,6.19
2022-12-27T16:21:48.260Z,6.22
2022-12-27T16:24:36.401Z,6.23
2022-12-27T16:27:33.540Z,6.23
2022-12-27T16:30:39.545Z,6.21
2022-12-27T16:33:37.646Z,6.19
2022-12-27T16:36:31.092Z,6.23
2022-12-27T16:39:30.523Z,6.28
2022-12-27T16:42:28.035Z,6.28
2022-12-27T16:45:32.839Z,6.31
2022-12-27T16:48:29.987Z,6.35
2022-12-27T16:51:32.984Z,6.41
2022-12-27T16:54:32.416Z,6.41
2022-12-27T16:57:34.535Z,6.35
2022-12-27T17:00:38.901Z,6.29
2022-12-27T17:03:45.567Z,6.27
2022-12-27T17:06:59.453Z,6.31
2022-12-27T17:09:47.424Z,6.37
2022-12-27T17:12:35.566Z,6.42
2022-12-27T17:15:24.109Z,6.44
2022-12-27T17:18:25.337Z,6.40
2022-12-27T17:21:18.206Z,6.42
2022-12-27T17:24:10.027Z,6.41
2022-12-27T17:27:14.596Z,6.40
2022-12-27T17:30:13.469Z,6.28
2022-12-27T17:33:21.996Z,6.18
2022-12-27T17:36:24.010Z,6.07
2022-12-27T17:39:25.025Z,6.10
2022-12-27T17:42:37.994Z,6.14
2022-12-27T17:45:35.963Z,6.20
2022-12-27T17:48:28.979Z,6.22
2022-12-27T17:51:21.385Z,6.15
2022-12-27T17:54:41.440Z,6.12
2022-12-27T17:57:47.160Z,6.08
2022-12-27T18:00:40.310Z,6.01
2022-12-27T18:03:32.853Z,5.95
2022-12-27T18:06:20.958Z,5.87
2022-12-27T18:09:11.638Z,5.88
2022-12-27T18:12:01.815Z,5.90
2022-12-27T18:14:56.476Z,5.78
2022-12-27T18:17:47.896Z,5.84
2022-12-27T18:20:38.571Z,5.82
2022-12-27T18:23:27.640Z,5.78
2022-12-27T18:26:16.485Z,5.74
2022-12-27T18:29:06.890Z,5.75
2022-12-27T18:31:58.510Z,5.75
2022-12-27T18:34:52.322Z,5.70
2022-12-27T18:37:40.570Z,5.70
2022-12-27T18:40:28.661Z,5.76
2022-12-27T18:43:16.639Z,5.75
2022-12-27T18:46:06.464Z,5.77
2022-12-27T18:48:54.684Z,5.69
2022-12-27T18:51:42.846Z,5.71
2022-12-27T18:54:36.403Z,5.66
2022-12-27T18:57:35.254Z,5.62
2022-12-27T19:00:26.424Z,5.58
2022-12-27T19:03:17.720Z,5.51
2022-12-27T19:06:08.948Z,5.50
2022-12-27T19:08:56.982Z,5.44
2022-12-27T19:11:52.557Z,5.45
2022-12-27T19:14:44.278Z,5.41
2022-12-27T19:17:33.352Z,5.37
2022-12-27T19:20:25.511Z,5.39
2022-12-27T19:23:28.927Z,5.44
2022-12-27T19:26:26.793Z,5.52
2022-12-27T19:29:16.793Z,5.54
2022-12-27T19:32:08.511Z,5.55
2022-12-27T19:34:59.238Z,5.57
2022-12-27T19:37:48.598Z,5.61
2022-12-27T19:40:36.597Z,5.64
2022-12-27T19:43:26.957Z,5.66
2022-12-27T19:46:15.635Z,5.67
2022-12-27T19:52:16.723Z,5.74
2022-12-27T19:55:09.403Z,5.76
2022-12-27T19:57:57.614Z,5.78
2022-12-27T20:00:45.606Z,5.73
2022-12-27T20:03:33.756Z,5.69
2022-12-27T20:06:26.684Z,5.71
2022-12-27T20:09:18.493Z,5.72
2022-12-27T20:12:09.458Z,5.70
2022-12-27T20:14:57.501Z,5.75
2022-12-27T20:17:45.480Z,5.76
2022-12-27T20:20:33.438Z,5.78
2022-12-27T20:23:21.669Z,5.83
2022-12-27T20:26:10.073Z,5.80
2022-12-27T20:28:59.787Z,5.84
2022-12-27T20:31:49.990Z,5.82
2022-12-27T20:34:38.054Z,5.88
2022-12-27T20:37:26.084Z,5.87
2022-12-27T20:40:14.103Z,5.83
2022-12-27T20:43:02.014Z,5.88
2022-12-27T20:45:51.420Z,5.87
2022-12-27T20:48:40.454Z,5.86
2022-12-27T20:51:31.580Z,5.85
2022-12-27T20:54:19.522Z,5.88
2022-12-27T20:57:07.563Z,5.90
2022-12-27T20:59:55.526Z,5.91
2022-12-27T21:02:45.083Z,5.91
2022-12-27T21:05:33.138Z,5.95
2022-12-27T21:08:21.067Z,5.93
2022-12-27T21:11:10.658Z,5.95
2022-12-27T21:13:59.058Z,5.90
2022-12-27T21:16:47.591Z,5.96
2022-12-27T21:19:37.034Z,5.95
2022-12-27T21:22:24.943Z,5.96
2022-12-27T21:25:12.916Z,5.97
2022-12-27T21:28:00.855Z,5.97
2022-12-27T21:30:56.515Z,5.99
2022-12-27T21:33:44.928Z,5.92
2022-12-27T21:36:34.784Z,5.74
2022-12-27T21:39:24.266Z,5.69
2022-12-27T21:42:12.362Z,5.57
2022-12-27T21:45:00.313Z,5.54
2022-12-27T21:47:48.589Z,5.48
2022-12-27T21:50:37.492Z,5.41
2022-12-27T21:53:26.839Z,5.38
2022-12-27T21:56:16.777Z,5.33
2022-12-27T21:59:10.780Z,5.33
2022-12-27T22:01:58.895Z,5.25
2022-12-27T22:04:47.301Z,5.27
2022-12-27T22:07:35.281Z,5.24
2022-12-27T22:10:25.461Z,5.23
2022-12-27T22:13:13.397Z,5.25
2022-12-27T22:16:03.844Z,5.21
2022-12-27T22:18:52.452Z,5.25
2022-12-27T22:21:41.612Z,5.25
2022-12-27T22:24:29.590Z,5.26
2022-12-27T22:27:18.824Z,5.25
2022-12-27T22:30:08.198Z,5.25
2022-12-27T22:32:56.226Z,5.25
2022-12-27T22:35:44.588Z,5.24
2022-12-27T22:38:33.713Z,5.25
2022-12-27T22:41:25.819Z,5.36
2022-12-27T22:44:16.118Z,5.37
2022-12-27T22:47:25.689Z,5.41
2022-12-27T22:50:11.938Z,5.42
2022-12-27T22:52:59.941Z,5.39
2022-12-27T22:55:48.869Z,5.42
2022-12-27T22:58:36.799Z,5.42
2022-12-27T23:01:27.758Z,5.40
2022-12-27T23:04:16.100Z,5.37
2022-12-27T23:07:04.102Z,5.34
2022-12-27T23:09:52.079Z,5.40
2022-12-27T23:12:40.082Z,5.42
2022-12-27T23:15:28.056Z,5.39
2022-12-27T23:18:17.352Z,5.41
2022-12-27T23:21:20.868Z,5.42
2022-12-27T23:24:12.415Z,5.42
2022-12-27T23:27:00.549Z,5.43
2022-12-27T23:29:48.517Z,5.44
2022-12-27T23:32:36.470Z,5.47
2022-12-27T23:35:25.779Z,5.48
2022-12-27T23:38:13.674Z,5.44
2022-12-27T23:41:03.302Z,5.44
2022-12-27T23:43:54.989Z,5.54
2022-12-27T23:46:43.479Z,5.50
2022-12-27T23:49:31.424Z,5.49
2022-12-27T23:52:20.856Z,5.51
2022-12-27T23:55:09.561Z,5.56
2022-12-27T23:57:57.543Z,5.57
